createdAt,value
2017-12-02T00:01:11.736Z,95.32
2017-12-02T00:03:39.296Z,93.76
2017-12-02T00:06:06.859Z,94.02
2017-12-02T00:08:34.511Z,94.88
2017-12-02T00:11:02.072Z,95.38
2017-12-02T00:13:29.677Z,94.63
2017-12-02T00:15:57.300Z,94.82
2017-12-02T00:18:24.865Z,94.00
2017-12-02T00:20:52.435Z,93.58
2017-12-02T00:23:20.089Z,94.26
2017-12-02T00:25:47.658Z,93.78
2017-12-02T00:28:16.127Z,93.30
2017-12-02T00:30:43.688Z,93.42
2017-12-02T00:33:12.172Z,93.12
2017-12-02T00:35:40.664Z,93.07
2017-12-02T00:38:08.931Z,94.13
2017-12-02T00:40:37.349Z,93.59
2017-12-02T00:43:05.888Z,93.01
2017-12-02T00:45:34.235Z,93.04
2017-12-02T00:48:02.625Z,93.36
2017-12-02T00:50:30.188Z,92.75
2017-12-02T00:52:57.784Z,94.21
2017-12-02T00:55:25.348Z,93.15
2017-12-02T00:57:52.973Z,93.37
2017-12-02T01:00:20.560Z,93.11
2017-12-02T01:02:48.120Z,93.39
2017-12-02T01:05:16.632Z,93.36
2017-12-02T01:07:44.980Z,94.04
2017-12-02T01:10:13.324Z,93.50
2017-12-02T01:12:40.883Z,93.95
2017-12-02T01:15:08.448Z,94.39
2017-12-02T01:17:36.708Z,93.50
2017-12-02T01:20:04.277Z,93.47
2017-12-02T01:22:31.873Z,92.93
2017-12-02T01:24:59.483Z,92.91
2017-12-02T01:27:27.820Z,92.51
2017-12-02T01:29:55.376Z,92.30
2017-12-02T01:32:23.828Z,92.82
2017-12-02T01:34:51.425Z,92.92
2017-12-02T01:37:18.995Z,93.71
2017-12-02T01:39:46.560Z,93.76
2017-12-02T01:42:14.129Z,93.50
2017-12-02T01:44:41.692Z,94.12
2017-12-02T01:47:09.336Z,94.75
2017-12-02T01:49:37.034Z,94.33
2017-12-02T01:52:04.598Z,94.15
2017-12-02T01:54:32.152Z,94.17
2017-12-02T01:56:59.771Z,93.26
2017-12-02T01:59:27.439Z,94.29
2017-12-02T02:01:54.996Z,94.78
2017-12-02T02:04:22.659Z,94.08
2017-12-02T02:06:50.218Z,93.50
2017-12-02T02:09:17.784Z,93.75
2017-12-02T02:11:45.344Z,94.75
2017-12-02T02:14:13.672Z,94.23
2017-12-02T02:16:41.240Z,93.59
2017-12-02T02:19:08.808Z,93.26
2017-12-02T02:21:36.367Z,94.01
2017-12-02T02:24:03.929Z,94.21
2017-12-02T02:26:31.489Z,93.61
2017-12-02T02:28:59.087Z,93.67
2017-12-02T02:31:26.713Z,93.21
2017-12-02T02:33:54.315Z,92.82
2017-12-02T02:36:21.872Z,92.94
2017-12-02T02:38:49.427Z,93.12
2017-12-02T02:41:16.987Z,93.90
2017-12-02T02:43:44.558Z,93.54
2017-12-02T02:46:12.157Z,93.71
2017-12-02T02:48:39.775Z,93.75
2017-12-02T02:51:07.335Z,93.83
2017-12-02T02:53:34.923Z,93.89
2017-12-02T02:56:02.489Z,93.60
2017-12-02T02:58:30.044Z,93.48
2017-12-02T03:00:57.603Z,93.20
2017-12-02T03:03:25.243Z,93.37
2017-12-02T03:05:52.799Z,93.97
2017-12-02T03:08:20.368Z,93.76
2017-12-02T03:10:47.927Z,94.17
2017-12-02T03:13:15.588Z,93.66
2017-12-02T03:15:43.152Z,93.62
2017-12-02T03:18:10.813Z,93.01
2017-12-02T03:20:38.368Z,94.37
2017-12-02T03:23:06.026Z,94.08
2017-12-02T03:25:33.591Z,94.56
2017-12-02T03:28:01.160Z,95.61
2017-12-02T03:30:28.820Z,94.33
2017-12-02T03:32:56.475Z,94.50
2017-12-02T03:35:24.140Z,93.63
2017-12-02T03:37:51.700Z,94.56
2017-12-02T03:40:19.267Z,94.21
2017-12-02T03:42:46.828Z,93.54
2017-12-02T03:45:14.400Z,93.37
2017-12-02T03:47:41.960Z,94.06
2017-12-02T03:50:09.622Z,94.31
2017-12-02T03:52:37.188Z,93.55
2017-12-02T03:55:04.827Z,93.63
2017-12-02T03:57:32.380Z,94.96
2017-12-02T03:59:59.932Z,94.27
2017-12-02T04:02:27.505Z,94.57
2017-12-02T04:04:55.854Z,94.58
2017-12-02T04:07:23.428Z,94.15
2017-12-02T04:09:50.990Z,94.90
2017-12-02T04:12:18.548Z,94.18
2017-12-02T04:14:46.148Z,94.57
2017-12-02T04:17:14.738Z,95.84
2017-12-02T04:19:43.249Z,96.23
2017-12-02T04:22:10.810Z,96.08
2017-12-02T04:24:38.373Z,96.17
2017-12-02T04:27:05.937Z,96.36
2017-12-02T04:29:33.508Z,94.68
2017-12-02T04:32:01.107Z,94.15
2017-12-02T04:34:28.669Z,94.84
2017-12-02T04:36:56.233Z,94.19
2017-12-02T04:39:23.835Z,94.85
2017-12-02T04:41:51.394Z,94.63
2017-12-02T04:44:18.956Z,94.43
2017-12-02T04:46:46.564Z,95.56
2017-12-02T04:49:14.160Z,95.25
2017-12-02T04:51:41.795Z,95.38
2017-12-02T04:54:09.468Z,95.10
2017-12-02T04:56:37.106Z,94.48
2017-12-02T04:59:05.565Z,93.71
2017-12-02T05:01:33.126Z,94.30
2017-12-02T05:04:00.692Z,95.78
2017-12-02T05:06:28.251Z,94.34
2017-12-02T05:08:55.844Z,93.90
2017-12-02T05:11:23.403Z,93.93
2017-12-02T05:13:51.816Z,95.17
2017-12-02T05:16:19.457Z,95.10
2017-12-02T05:18:47.111Z,94.60
2017-12-02T05:21:14.674Z,95.49
2017-12-02T05:23:42.240Z,95.70
2017-12-02T05:26:09.840Z,94.82
2017-12-02T05:28:37.400Z,95.61
2017-12-02T05:31:04.963Z,95.32
2017-12-02T05:33:32.528Z,94.49
2017-12-02T05:36:00.140Z,94.20
2017-12-02T05:38:27.701Z,93.51
2017-12-02T05:40:55.267Z,94.54
2017-12-02T05:43:22.826Z,96.30
2017-12-02T05:45:50.430Z,96.36
2017-12-02T05:48:17.988Z,94.52
2017-12-02T05:50:45.606Z,94.29
2017-12-02T05:53:13.171Z,94.32
2017-12-02T05:55:40.736Z,94.49
2017-12-02T05:58:08.400Z,94.26
2017-12-02T06:00:35.975Z,94.06
2017-12-02T06:03:03.541Z,94.89
2017-12-02T06:05:31.116Z,95.59
2017-12-02T06:07:58.744Z,95.09
2017-12-02T06:10:26.309Z,94.72
2017-12-02T06:12:53.959Z,94.48
2017-12-02T06:15:21.523Z,94.72
2017-12-02T06:17:49.083Z,94.56
2017-12-02T06:20:17.360Z,94.57
2017-12-02T06:22:44.938Z,94.53
2017-12-02T06:25:12.502Z,95.35
2017-12-02T06:27:40.070Z,95.07
2017-12-02T06:30:07.708Z,95.75
2017-12-02T06:32:35.269Z,95.01
2017-12-02T06:35:02.828Z,96.16
2017-12-02T06:37:30.483Z,96.03
2017-12-02T06:39:58.051Z,96.41
2017-12-02T06:42:25.628Z,96.05
2017-12-02T06:44:53.272Z,96.73
2017-12-02T06:47:20.839Z,95.83
2017-12-02T06:49:49.423Z,96.03
2017-12-02T06:52:16.996Z,96.28
2017-12-02T06:54:44.571Z,95.36
2017-12-02T06:57:12.135Z,96.29
2017-12-02T06:59:39.706Z,96.61
2017-12-02T07:02:07.305Z,97.06
2017-12-02T07:04:34.868Z,96.51
2017-12-02T07:07:02.444Z,96.35
2017-12-02T07:09:30.009Z,96.30
2017-12-02T07:11:57.577Z,95.68
2017-12-02T07:14:25.150Z,95.90
2017-12-02T07:16:52.783Z,95.34
2017-12-02T07:19:20.352Z,95.57
2017-12-02T07:21:48.816Z,95.53
2017-12-02T07:24:17.116Z,96.32
2017-12-02T07:26:45.452Z,96.68
2017-12-02T07:29:13.873Z,94.75
2017-12-02T07:31:41.438Z,94.70
2017-12-02T07:34:09.090Z,94.77
2017-12-02T07:36:36.655Z,93.80
2017-12-02T07:39:04.232Z,93.83
2017-12-02T07:41:31.796Z,92.88
2017-12-02T07:43:59.360Z,92.56
2017-12-02T07:46:27.973Z,93.20
2017-12-02T07:48:55.580Z,95.58
2017-12-02T07:51:23.213Z,95.25
2017-12-02T07:53:50.797Z,95.26
2017-12-02T07:56:19.188Z,94.80
2017-12-02T07:58:47.576Z,95.47
2017-12-02T08:01:15.152Z,94.78
2017-12-02T08:03:42.712Z,94.03
2017-12-02T08:06:10.352Z,93.39
2017-12-02T08:08:39.645Z,94.26
2017-12-02T08:11:07.218Z,94.60
2017-12-02T08:13:34.928Z,94.09
2017-12-02T08:16:03.444Z,93.50
2017-12-02T08:18:31.011Z,94.78
2017-12-02T08:20:58.629Z,94.50
2017-12-02T08:23:27.007Z,93.48
2017-12-02T08:25:55.347Z,93.88
2017-12-02T08:28:23.683Z,93.60
2017-12-02T08:30:51.283Z,94.27
2017-12-02T08:33:18.835Z,95.10
2017-12-02T08:35:46.406Z,94.53
2017-12-02T08:38:13.964Z,93.25
2017-12-02T08:40:41.532Z,93.10
2017-12-02T08:43:09.128Z,93.45
2017-12-02T08:45:36.688Z,92.76
2017-12-02T08:48:04.292Z,92.54
2017-12-02T08:50:31.848Z,92.52
2017-12-02T08:52:59.424Z,92.86
2017-12-02T08:55:26.989Z,93.40
2017-12-02T08:57:54.603Z,94.54
2017-12-02T09:00:22.939Z,92.82
2017-12-02T09:02:50.596Z,92.75
2017-12-02T09:05:18.252Z,94.33
2017-12-02T09:07:45.815Z,93.65
2017-12-02T09:10:13.380Z,94.31
2017-12-02T09:12:41.036Z,92.08
2017-12-02T09:15:08.592Z,92.26
2017-12-02T09:17:36.949Z,92.67
2017-12-02T09:20:05.375Z,91.54
2017-12-02T09:22:32.950Z,92.14
2017-12-02T09:25:00.587Z,93.25
2017-12-02T09:27:28.197Z,92.33
2017-12-02T09:29:55.758Z,92.00
2017-12-02T09:32:23.327Z,91.65
2017-12-02T09:34:50.893Z,91.28
2017-12-02T09:37:18.459Z,91.88
2017-12-02T09:39:46.048Z,91.77
2017-12-02T09:42:14.506Z,91.44
2017-12-02T09:44:42.801Z,89.77
2017-12-02T09:47:10.400Z,91.36
2017-12-02T09:49:38.868Z,91.11
2017-12-02T09:52:06.516Z,90.30
2017-12-02T09:54:34.141Z,90.42
2017-12-02T09:57:01.748Z,90.65
2017-12-02T09:59:29.313Z,91.62
2017-12-02T10:01:56.884Z,92.44
2017-12-02T10:04:24.446Z,91.48
2017-12-02T10:06:52.004Z,91.56
2017-12-02T10:09:19.645Z,89.06
2017-12-02T10:11:47.210Z,88.95
2017-12-02T10:14:14.777Z,91.08
2017-12-02T10:16:42.408Z,89.75
2017-12-02T10:19:09.969Z,89.95
2017-12-02T10:21:37.533Z,90.09
2017-12-02T10:24:05.092Z,88.61
2017-12-02T10:26:32.673Z,89.44
2017-12-02T10:29:00.239Z,90.60
2017-12-02T10:31:27.895Z,88.91
2017-12-02T10:33:56.807Z,88.58
2017-12-02T10:36:25.365Z,86.48
2017-12-02T10:38:52.959Z,87.44
2017-12-02T10:41:20.595Z,88.70
2017-12-02T10:43:48.188Z,89.35
2017-12-02T10:46:15.820Z,89.96
2017-12-02T10:48:43.424Z,87.56
2017-12-02T10:51:11.043Z,86.75
2017-12-02T10:53:38.648Z,89.57
2017-12-02T10:56:06.443Z,88.38
2017-12-02T10:58:34.056Z,88.98
2017-12-02T11:01:01.620Z,87.88
2017-12-02T11:03:29.251Z,87.25
2017-12-02T11:05:56.816Z,88.00
2017-12-02T11:08:24.375Z,84.27
2017-12-02T11:10:52.036Z,85.13
2017-12-02T11:13:20.464Z,88.43
2017-12-02T11:15:48.797Z,87.98
2017-12-02T11:18:17.324Z,88.40
2017-12-02T11:20:44.982Z,88.07
2017-12-02T11:23:12.551Z,88.90
2017-12-02T11:25:40.121Z,86.47
2017-12-02T11:28:07.735Z,87.96
2017-12-02T11:30:35.402Z,88.23
2017-12-02T11:33:03.984Z,85.29
2017-12-02T11:35:31.639Z,85.43
2017-12-02T11:37:59.208Z,85.00
2017-12-02T11:40:27.703Z,87.02
2017-12-02T11:42:56.062Z,88.18
2017-12-02T11:45:24.438Z,88.33
2017-12-02T11:47:52.832Z,85.66
2017-12-02T11:50:20.370Z,86.93
2017-12-02T11:52:48.008Z,87.77
2017-12-02T11:55:15.568Z,88.62
2017-12-02T11:57:44.036Z,86.76
2017-12-02T12:00:12.336Z,86.97
2017-12-02T12:02:40.745Z,88.70
2017-12-02T12:05:08.417Z,88.34
2017-12-02T12:07:35.984Z,88.16
2017-12-02T12:10:03.593Z,88.76
2017-12-02T12:12:31.156Z,88.41
2017-12-02T12:14:59.533Z,88.21
2017-12-02T12:17:27.131Z,88.96
2017-12-02T12:19:54.724Z,88.96
2017-12-02T12:22:22.353Z,88.92
2017-12-02T12:24:50.740Z,89.77
2017-12-02T12:27:18.341Z,88.60
2017-12-02T12:29:46.719Z,88.51
2017-12-02T12:32:15.092Z,89.15
2017-12-02T12:34:43.540Z,90.65
2017-12-02T12:37:11.103Z,89.13
2017-12-02T12:39:38.704Z,90.59
2017-12-02T12:42:06.262Z,90.02
2017-12-02T12:44:33.860Z,90.17
2017-12-02T12:47:01.445Z,90.07
2017-12-02T12:49:29.015Z,89.86
2017-12-02T12:51:56.611Z,90.34
2017-12-02T12:54:24.204Z,89.51
2017-12-02T12:56:51.799Z,90.58
2017-12-02T12:59:19.355Z,89.86
2017-12-02T13:01:46.920Z,89.52
2017-12-02T13:04:14.490Z,89.98
2017-12-02T13:06:42.055Z,90.74
2017-12-02T13:09:09.694Z,90.57
2017-12-02T13:11:38.183Z,87.95
2017-12-02T13:14:05.748Z,88.65
2017-12-02T13:16:34.216Z,88.11
2017-12-02T13:19:01.780Z,88.46
2017-12-02T13:21:29.339Z,88.77
2017-12-02T13:23:56.964Z,88.93
2017-12-02T13:26:24.561Z,87.95
2017-12-02T13:28:52.122Z,87.31
2017-12-02T13:31:19.684Z,88.73
2017-12-02T13:33:47.275Z,89.41
2017-12-02T13:36:14.832Z,89.32
2017-12-02T13:38:42.392Z,89.63
2017-12-02T13:41:09.947Z,88.97
2017-12-02T13:43:37.510Z,89.79
2017-12-02T13:46:05.150Z,88.33
2017-12-02T13:48:33.528Z,89.31
2017-12-02T13:51:01.912Z,90.13
2017-12-02T13:53:29.573Z,88.96
2017-12-02T13:55:57.196Z,89.49
2017-12-02T13:58:24.768Z,90.40
2017-12-02T14:00:52.331Z,90.84
2017-12-02T14:03:19.887Z,89.54
2017-12-02T14:05:47.481Z,89.91
2017-12-02T14:08:15.953Z,90.86
2017-12-02T14:10:44.412Z,91.06
2017-12-02T14:13:12.676Z,90.19
2017-12-02T14:15:40.271Z,91.11
2017-12-02T14:18:07.833Z,91.29
2017-12-02T14:20:35.395Z,91.96
2017-12-02T14:23:03.860Z,92.28
2017-12-02T14:25:32.209Z,92.63
2017-12-02T14:27:59.797Z,91.88
2017-12-02T14:30:27.384Z,92.62
2017-12-02T14:32:54.948Z,92.19
2017-12-02T14:35:22.503Z,92.55
2017-12-02T14:37:50.960Z,92.33
2017-12-02T14:40:20.317Z,91.51
2017-12-02T14:42:47.889Z,91.98
2017-12-02T14:45:15.512Z,92.57
2017-12-02T14:47:43.190Z,90.97
2017-12-02T14:50:10.755Z,92.15
2017-12-02T14:52:38.316Z,90.98
2017-12-02T14:55:06.804Z,90.21
2017-12-02T14:57:34.412Z,88.97
2017-12-02T15:00:01.977Z,88.96
2017-12-02T15:02:31.721Z,89.37
2017-12-02T15:04:59.350Z,91.83
2017-12-02T15:07:26.909Z,91.38
2017-12-02T15:09:54.477Z,91.55
2017-12-02T15:12:22.887Z,91.21
2017-12-02T15:14:50.457Z,91.64
2017-12-02T15:17:18.921Z,92.66
2017-12-02T15:19:47.160Z,91.67
2017-12-02T15:22:15.634Z,90.47
2017-12-02T15:24:43.995Z,92.17
2017-12-02T15:27:12.124Z,90.50
2017-12-02T15:29:39.690Z,91.03
2017-12-02T15:32:07.279Z,90.03
2017-12-02T15:34:35.832Z,90.21
2017-12-02T15:37:04.220Z,89.62
2017-12-02T15:39:32.054Z,91.22
2017-12-02T15:42:00.649Z,91.63
2017-12-02T15:44:29.018Z,90.10
2017-12-02T15:46:56.579Z,90.02
2017-12-02T15:49:24.885Z,90.46
2017-12-02T15:51:52.457Z,90.87
2017-12-02T15:54:20.964Z,90.72
2017-12-02T15:56:48.524Z,92.00
2017-12-02T15:59:16.149Z,91.75
2017-12-02T16:01:43.714Z,92.69
2017-12-02T16:04:12.054Z,92.01
2017-12-02T16:06:39.653Z,91.71
2017-12-02T16:09:08.168Z,92.22
2017-12-02T16:11:36.495Z,91.55
2017-12-02T16:14:04.844Z,91.51
2017-12-02T16:16:32.450Z,90.75
2017-12-02T16:19:00.124Z,90.22
2017-12-02T16:21:27.781Z,92.21
2017-12-02T16:23:55.443Z,92.16
2017-12-02T16:26:23.107Z,90.84
2017-12-02T16:28:50.672Z,91.11
2017-12-02T16:31:18.327Z,91.99
2017-12-02T16:33:45.892Z,92.35
2017-12-02T16:36:13.453Z,92.82
2017-12-02T16:38:41.015Z,92.65
2017-12-02T16:41:08.591Z,92.24
2017-12-02T16:43:37.081Z,91.39
2017-12-02T16:46:04.640Z,93.27
2017-12-02T16:48:33.096Z,92.74
2017-12-02T16:51:00.659Z,92.16
2017-12-02T16:53:28.221Z,91.87
2017-12-02T16:55:55.787Z,93.09
2017-12-02T16:58:23.356Z,92.06
2017-12-02T17:00:50.963Z,91.46
2017-12-02T17:03:18.670Z,93.39
2017-12-02T17:05:46.257Z,93.53
2017-12-02T17:08:13.823Z,92.62
2017-12-02T17:10:41.444Z,93.64
2017-12-02T17:13:09.000Z,93.27
2017-12-02T17:15:36.668Z,93.65
2017-12-02T17:18:04.228Z,94.11
2017-12-02T17:20:31.818Z,93.74
2017-12-02T17:22:59.375Z,93.89
2017-12-02T17:25:27.020Z,93.80
2017-12-02T17:27:54.679Z,92.02
2017-12-02T17:30:22.307Z,91.82
2017-12-02T17:32:49.866Z,92.08
2017-12-02T17:35:17.430Z,92.44
2017-12-02T17:37:44.987Z,93.47
2017-12-02T17:40:12.555Z,94.08
2017-12-02T17:42:40.153Z,93.92
2017-12-02T17:45:07.725Z,92.60
2017-12-02T17:47:35.337Z,93.13
2017-12-02T17:50:03.017Z,93.16
2017-12-02T17:52:30.691Z,93.81
2017-12-02T17:54:58.249Z,92.27
2017-12-02T17:57:26.029Z,93.21
2017-12-02T17:59:53.653Z,92.42
2017-12-02T18:02:21.258Z,93.47
2017-12-02T18:04:48.910Z,92.86
2017-12-02T18:07:16.469Z,93.20
2017-12-02T18:09:44.101Z,93.50
2017-12-02T18:12:11.664Z,92.77
2017-12-02T18:14:39.215Z,94.20
2017-12-02T18:17:06.777Z,94.37
2017-12-02T18:19:34.340Z,93.76
2017-12-02T18:22:01.949Z,94.07
2017-12-02T18:24:29.585Z,92.91
2017-12-02T18:26:57.151Z,93.16
2017-12-02T18:29:24.706Z,92.61
2017-12-02T18:31:52.276Z,92.66
2017-12-02T18:34:20.732Z,92.42
2017-12-02T18:36:48.288Z,92.21
2017-12-02T18:39:16.909Z,94.17
2017-12-02T18:41:45.295Z,93.82
2017-12-02T18:44:12.952Z,93.38
2017-12-02T18:46:41.461Z,93.07
2017-12-02T18:49:09.011Z,93.74
2017-12-02T18:51:36.621Z,93.90
2017-12-02T18:54:04.177Z,92.65
2017-12-02T18:56:31.738Z,93.59
2017-12-02T18:58:59.300Z,94.02
2017-12-02T19:01:26.864Z,93.47
2017-12-02T19:03:55.278Z,92.92
2017-12-02T19:06:22.842Z,93.50
2017-12-02T19:08:50.465Z,93.95
2017-12-02T19:11:18.061Z,92.35
2017-12-02T19:13:45.824Z,91.95
2017-12-02T19:16:13.544Z,92.49
2017-12-02T19:18:41.118Z,92.99
2017-12-02T19:21:09.000Z,93.50
2017-12-02T19:23:36.588Z,93.06
2017-12-02T19:26:04.139Z,91.78
2017-12-02T19:28:31.735Z,92.47
2017-12-02T19:30:59.335Z,93.01
2017-12-02T19:33:27.829Z,93.41
2017-12-02T19:35:55.380Z,93.79
2017-12-02T19:38:22.937Z,93.67
2017-12-02T19:40:50.548Z,93.49
2017-12-02T19:43:18.162Z,93.77
2017-12-02T19:45:45.724Z,94.20
2017-12-02T19:48:13.324Z,94.37
2017-12-02T19:50:43.594Z,93.45
2017-12-02T19:53:13.829Z,93.76
2017-12-02T19:55:44.944Z,94.52
2017-12-02T19:58:12.667Z,92.45
2017-12-02T20:00:42.474Z,93.70
2017-12-02T20:03:11.982Z,92.18
2017-12-02T20:05:39.602Z,91.95
2017-12-02T20:08:07.898Z,91.51
2017-12-02T20:10:36.357Z,91.75
2017-12-02T20:13:04.016Z,92.54
2017-12-02T20:15:31.608Z,91.28
2017-12-02T20:18:00.104Z,91.35
2017-12-02T20:20:27.752Z,92.05
2017-12-02T20:22:55.321Z,92.26
2017-12-02T20:25:22.882Z,93.15
2017-12-02T20:27:51.357Z,93.58
2017-12-02T20:30:19.777Z,94.11
2017-12-02T20:32:48.351Z,94.22
2017-12-02T20:35:16.685Z,93.90
2017-12-02T20:37:44.296Z,94.30
2017-12-02T20:40:11.860Z,93.09
2017-12-02T20:42:39.412Z,92.95
2017-12-02T20:45:07.085Z,92.96
2017-12-02T20:47:34.653Z,92.42
2017-12-02T20:50:02.252Z,92.97
2017-12-02T20:52:29.804Z,92.48
2017-12-02T20:54:57.404Z,92.18
2017-12-02T20:57:25.743Z,92.21
2017-12-02T20:59:53.300Z,93.29
2017-12-02T21:02:20.861Z,92.63
2017-12-02T21:04:48.420Z,92.27
2017-12-02T21:07:16.049Z,92.36
2017-12-02T21:09:43.608Z,92.38
2017-12-02T21:12:12.024Z,92.11
2017-12-02T21:14:39.652Z,92.18
2017-12-02T21:17:08.128Z,92.20
2017-12-02T21:19:35.792Z,91.58
2017-12-02T21:22:03.461Z,91.66
2017-12-02T21:24:31.836Z,92.34
2017-12-02T21:26:59.423Z,91.84
2017-12-02T21:29:27.789Z,92.05
2017-12-02T21:31:56.364Z,92.05
2017-12-02T21:34:24.821Z,92.51
2017-12-02T21:36:53.328Z,92.79
2017-12-02T21:39:21.911Z,92.83
2017-12-02T21:41:50.380Z,93.39
2017-12-02T21:44:18.716Z,93.63
2017-12-02T21:46:46.336Z,93.17
2017-12-02T21:49:14.683Z,93.06
2017-12-02T21:51:42.243Z,92.73
2017-12-02T21:54:09.803Z,92.79
2017-12-02T21:56:38.180Z,92.63
2017-12-02T21:59:05.784Z,93.56
2017-12-02T22:01:33.440Z,93.39
2017-12-02T22:04:01.047Z,93.12
2017-12-02T22:06:28.656Z,93.10
2017-12-02T22:08:56.912Z,94.27
2017-12-02T22:11:24.496Z,94.25
2017-12-02T22:13:52.088Z,94.08
2017-12-02T22:16:19.690Z,93.81
2017-12-02T22:18:48.168Z,93.68
2017-12-02T22:21:16.238Z,94.70
2017-12-02T22:23:43.798Z,94.23
2017-12-02T22:26:11.361Z,93.84
2017-12-02T22:28:38.956Z,94.10
2017-12-02T22:31:06.524Z,93.35
2017-12-02T22:33:34.120Z,93.80
2017-12-02T22:36:01.680Z,93.39
2017-12-02T22:38:29.304Z,92.73
2017-12-02T22:40:56.870Z,92.54
2017-12-02T22:43:24.464Z,93.49
2017-12-02T22:45:52.052Z,92.11
2017-12-02T22:48:20.548Z,92.04
2017-12-02T22:50:49.944Z,93.45
2017-12-02T22:53:17.661Z,93.47
2017-12-02T22:55:45.251Z,93.85
2017-12-02T22:58:12.824Z,93.63
2017-12-02T23:00:40.384Z,93.78
2017-12-02T23:03:07.952Z,93.30
2017-12-02T23:05:35.513Z,92.46
2017-12-02T23:08:03.171Z,92.80
2017-12-02T23:10:30.734Z,92.42
2017-12-02T23:12:58.290Z,92.51
2017-12-02T23:15:26.785Z,94.08
2017-12-02T23:17:54.377Z,92.91
2017-12-02T23:20:21.941Z,92.57
2017-12-02T23:22:49.514Z,92.28
2017-12-02T23:25:17.076Z,92.12
2017-12-02T23:27:44.704Z,93.33
2017-12-02T23:30:13.175Z,93.74
2017-12-02T23:32:40.740Z,93.36
2017-12-02T23:35:08.295Z,92.31
2017-12-02T23:37:35.852Z,91.82
2017-12-02T23:40:03.413Z,91.39
2017-12-02T23:42:30.971Z,91.94
2017-12-02T23:44:58.540Z,91.20
2017-12-02T23:47:26.100Z,90.89
2017-12-02T23:49:53.659Z,91.23
2017-12-02T23:52:21.301Z,91.72
2017-12-02T23:54:48.862Z,91.88
2017-12-02T23:57:16.421Z,92.37
2017-12-02T23:59:44.919Z,92.82
